Hlavní strana
METAR-TAF:

METAR-TAF

Letiště :

Kuvajt, Kuvajt

zeměpisná šířka: 29-13N, zeměpisná délka: 047-59E, výška: 55 m

Aktuální stav počasí

Zpráva byla vytvořena před 17 minutami, v 00:00 UTC
Severoseverozápadní vítr 8 kt
Teplota 15°C
Vlhkost vzduchu 82%
Tlak 1015 hPa
Viditelnost: 3500 m
kouřmo

METAR: OKBK 080000Z 34008KT 3500 BR NSC 15/12 Q1015 NOSIG

Čas: 03:17 (00:17 UTC)

Předpověď počasí

Zpráva byla vytvořena před 1 hodinou a 32 minutami, v 22:45 UTC
Předpověď platná od 08 v 00 UTC do 09 v 06 UTC
Severoseverozápadní vítr 10 kt
Viditelnost: 7000 m
Dočasný
od 08 v 00 UTC do 08 v 05 UTC
vítr z různých směrů 3 kt
Viditelnost: 2000 m
kouřmo

TAF: OKBK 072245Z 0800/0906 34010KT 7000 NSC TEMPO 0800/0805 VRB03KT 2000 BR

Stav a předpovědi počasí z více než 4 000 letišť (zprávy METAR a TAF).

Červené a žluté tečky na mapě představují dostupné meteorologické stanice.

Když kurzor umístíte na tečku, zobrazí se název stanice.

Pak kliknutím zobrazíte stav a předpověď počasí.

Chcete-li změnit mapu, kliknutím na zelené tlačítko se znaménkem +mapu přiblížíte, kliknutím na zelené tlačítko se znaménkem – mapu oddálíte a kliknutím na zelené šipky přejdete na sousední mapy.


METAR-TAF: